createdAt,value
2023-05-10T00:00:35.949Z,2.78
2023-05-10T00:03:37.807Z,3.30
2023-05-10T00:06:39.727Z,2.67
2023-05-10T00:09:44.466Z,2.67
2023-05-10T00:12:46.294Z,3.00
2023-05-10T00:15:48.260Z,3.30
2023-05-10T00:18:50.108Z,3.30
2023-05-10T00:21:51.868Z,3.17
2023-05-10T00:24:57.655Z,3.60
2023-05-10T00:28:03.125Z,3.10
2023-05-10T00:31:05.043Z,3.00
2023-05-10T00:34:10.570Z,3.53
2023-05-10T00:37:12.526Z,2.90
2023-05-10T00:40:15.007Z,3.20
2023-05-10T00:43:20.797Z,3.47
2023-05-10T00:46:23.085Z,3.15
2023-05-10T00:49:24.905Z,3.40
2023-05-10T00:52:27.227Z,3.15
2023-05-10T00:55:29.105Z,3.63
2023-05-10T00:58:35.746Z,3.17
2023-05-10T01:01:37.789Z,3.13
2023-05-10T01:04:39.861Z,2.97
2023-05-10T01:07:42.359Z,3.85
2023-05-10T01:10:44.242Z,3.43
2023-05-10T01:13:51.660Z,3.50
2023-05-10T01:16:53.509Z,3.92
2023-05-10T01:19:55.299Z,3.15
2023-05-10T01:23:49.619Z,3.25
2023-05-10T01:27:21.889Z,3.57
2023-05-10T01:31:06.187Z,3.57
2023-05-10T01:34:14.305Z,3.33
2023-05-10T01:37:19.782Z,3.88
2023-05-10T01:40:36.566Z,3.45
2023-05-10T01:43:48.683Z,3.33
2023-05-10T01:46:56.459Z,3.60
2023-05-10T01:49:58.373Z,4.00
2023-05-10T01:53:00.555Z,4.03
2023-05-10T01:56:06.701Z,3.30
2023-05-10T01:59:12.852Z,3.93
2023-05-10T02:02:14.675Z,3.40
2023-05-10T02:05:16.798Z,3.55
2023-05-10T02:08:18.986Z,4.22
2023-05-10T02:11:25.253Z,3.80
2023-05-10T02:14:31.687Z,4.37
2023-05-10T02:17:33.713Z,3.65
2023-05-10T02:20:35.791Z,3.75
2023-05-10T02:23:37.835Z,4.13
2023-05-10T02:26:39.702Z,4.47
2023-05-10T02:29:45.718Z,3.40
2023-05-10T02:32:49.575Z,3.90
2023-05-10T02:35:51.833Z,4.30
2023-05-10T02:38:54.110Z,4.28
2023-05-10T02:41:59.695Z,3.87
2023-05-10T02:45:02.534Z,3.83
2023-05-10T02:48:04.710Z,3.85
2023-05-10T02:51:07.029Z,3.97
2023-05-10T02:54:13.283Z,3.90
2023-05-10T02:57:21.800Z,3.60
2023-05-10T03:00:26.492Z,3.55
2023-05-10T03:03:28.292Z,3.47
2023-05-10T03:06:30.146Z,3.95
2023-05-10T03:09:32.654Z,3.80
2023-05-10T03:12:54.760Z,3.72
2023-05-10T03:16:10.301Z,3.85
2023-05-10T03:19:34.630Z,3.03
2023-05-10T03:22:39.440Z,3.33
2023-05-10T03:25:44.863Z,3.72
2023-05-10T03:28:50.282Z,3.20
2023-05-10T03:31:52.131Z,3.65
2023-05-10T03:34:54.067Z,3.60
2023-05-10T03:37:56.056Z,3.80
2023-05-10T03:40:57.917Z,3.63
2023-05-10T03:44:02.598Z,3.42
2023-05-10T03:47:04.577Z,3.22
2023-05-10T03:50:10.901Z,3.93
2023-05-10T03:53:13.563Z,4.03
2023-05-10T03:56:15.393Z,3.90
2023-05-10T03:59:20.302Z,3.95
2023-05-10T04:02:22.267Z,4.17
2023-05-10T04:05:24.138Z,4.00
2023-05-10T04:08:25.973Z,3.38
2023-05-10T04:11:30.619Z,3.78
2023-05-10T04:14:32.501Z,3.55
2023-05-10T04:17:38.018Z,3.60
2023-05-10T04:20:39.875Z,3.93
2023-05-10T04:23:41.778Z,3.58
2023-05-10T04:26:46.422Z,3.53
2023-05-10T04:29:52.071Z,3.80
2023-05-10T04:32:53.953Z,3.70
2023-05-10T04:35:55.937Z,3.70
2023-05-10T04:38:57.770Z,3.80
2023-05-10T04:41:59.613Z,3.53
2023-05-10T04:45:05.150Z,4.05
2023-05-10T04:48:10.626Z,3.40
2023-05-10T04:51:12.559Z,3.60
2023-05-10T04:54:14.423Z,3.50
2023-05-10T04:57:19.974Z,3.78
2023-05-10T05:00:22.124Z,3.60
2023-05-10T05:03:24.116Z,3.70
2023-05-10T05:06:26.417Z,4.00
2023-05-10T05:09:28.301Z,4.35
2023-05-10T05:12:30.228Z,4.10
2023-05-10T05:15:32.039Z,3.85
2023-05-10T05:18:34.019Z,3.87
2023-05-10T05:21:35.960Z,4.37
2023-05-10T05:24:40.588Z,3.72
2023-05-10T05:27:42.696Z,3.95
2023-05-10T05:30:44.537Z,3.88
2023-05-10T05:33:46.842Z,3.80
2023-05-10T05:36:49.074Z,3.20
2023-05-10T05:39:51.165Z,3.95
2023-05-10T05:42:53.141Z,3.97
2023-05-10T05:45:55.354Z,3.90
2023-05-10T05:48:57.392Z,3.97
2023-05-10T05:52:03.448Z,4.03
2023-05-10T05:55:06.044Z,3.80
2023-05-10T05:58:08.083Z,3.97
2023-05-10T06:01:10.162Z,3.65
2023-05-10T06:04:12.110Z,3.60
2023-05-10T06:07:14.020Z,3.77
2023-05-10T06:10:16.057Z,3.97
2023-05-10T06:13:17.899Z,4.15
2023-05-10T06:16:19.892Z,3.42
2023-05-10T06:19:22.021Z,4.07
2023-05-10T06:22:24.029Z,3.70
2023-05-10T06:25:25.978Z,3.40
2023-05-10T06:28:27.958Z,3.53
2023-05-10T06:31:29.877Z,3.38
2023-05-10T06:34:31.889Z,3.60
2023-05-10T06:37:34.144Z,4.40
2023-05-10T06:40:37.156Z,3.25
2023-05-10T06:43:42.458Z,3.55
2023-05-10T06:46:44.786Z,3.45
2023-05-10T06:49:46.795Z,3.40
2023-05-10T06:52:49.537Z,3.30
2023-05-10T06:55:52.520Z,3.35
2023-05-10T06:58:54.888Z,2.97
2023-05-10T07:01:56.890Z,3.35
2023-05-10T07:05:01.654Z,3.13
2023-05-10T07:08:05.061Z,2.53
2023-05-10T07:11:08.622Z,3.20
2023-05-10T07:14:10.895Z,3.10
2023-05-10T07:17:12.907Z,3.70
2023-05-10T07:20:14.973Z,3.00
2023-05-10T07:23:18.919Z,2.97
2023-05-10T07:26:20.787Z,2.80
2023-05-10T07:29:27.187Z,3.03
2023-05-10T07:32:29.376Z,2.80
2023-05-10T07:35:31.705Z,2.67
2023-05-10T07:38:33.586Z,2.97
2023-05-10T07:41:35.979Z,2.70
2023-05-10T07:44:42.070Z,2.95
2023-05-10T07:47:44.060Z,2.60
2023-05-10T07:50:46.131Z,3.15
2023-05-10T07:53:47.965Z,2.73
2023-05-10T07:56:49.835Z,2.60
2023-05-10T07:59:51.743Z,2.60
2023-05-10T08:02:54.218Z,2.42
2023-05-10T08:05:56.273Z,2.67
2023-05-10T08:08:58.157Z,2.23
2023-05-10T08:12:01.278Z,2.50
2023-05-10T08:15:06.605Z,2.20
2023-05-10T08:18:08.452Z,2.40
2023-05-10T08:21:12.527Z,2.90
2023-05-10T08:24:14.587Z,2.50
2023-05-10T08:27:16.593Z,2.25
2023-05-10T08:30:21.609Z,2.20
2023-05-10T08:33:23.684Z,2.30
2023-05-10T08:36:25.894Z,2.22
2023-05-10T08:39:30.628Z,2.33
2023-05-10T08:42:33.307Z,2.30
2023-05-10T08:45:40.516Z,2.45
2023-05-10T08:48:42.391Z,2.30
2023-05-10T08:51:46.157Z,2.40
2023-05-10T08:54:47.996Z,2.20
2023-05-10T08:57:49.993Z,2.30
2023-05-10T09:00:57.814Z,2.30
2023-05-10T09:03:59.760Z,2.30
2023-05-10T09:07:02.342Z,2.15
2023-05-10T09:10:05.346Z,2.27
2023-05-10T09:13:07.341Z,2.25
2023-05-10T09:16:20.380Z,2.30
2023-05-10T09:19:24.122Z,2.40
2023-05-10T09:22:26.192Z,2.17
2023-05-10T09:25:28.134Z,2.37
2023-05-10T09:28:33.666Z,2.17
2023-05-10T09:31:56.043Z,2.47
2023-05-10T09:34:58.470Z,2.40
2023-05-10T09:38:05.411Z,2.50
2023-05-10T09:41:33.827Z,2.40
2023-05-10T09:44:36.184Z,2.40
2023-05-10T09:47:38.484Z,2.15
2023-05-10T09:50:41.483Z,2.22
2023-05-10T09:53:43.796Z,2.60
2023-05-10T09:56:45.851Z,2.90
2023-05-10T09:59:47.837Z,2.97
2023-05-10T10:02:55.527Z,2.58
2023-05-10T10:05:57.715Z,2.00
2023-05-10T10:08:59.699Z,2.60
2023-05-10T10:12:02.594Z,2.47
2023-05-10T10:15:05.627Z,2.85
2023-05-10T10:18:07.698Z,2.78
2023-05-10T10:21:10.044Z,2.20
2023-05-10T10:24:12.447Z,2.55
2023-05-10T10:27:14.404Z,2.60
2023-05-10T10:30:34.625Z,2.10
2023-05-10T10:34:01.969Z,2.42
2023-05-10T10:37:07.849Z,2.30
2023-05-10T10:40:26.567Z,2.30
2023-05-10T10:43:29.028Z,2.00
2023-05-10T10:46:30.824Z,2.30
2023-05-10T10:49:42.827Z,2.58
2023-05-10T10:52:45.033Z,2.38
2023-05-10T10:55:49.985Z,2.88
2023-05-10T10:58:55.036Z,1.60
2023-05-10T11:01:57.034Z,2.13
2023-05-10T11:04:58.894Z,1.77
2023-05-10T11:08:01.237Z,1.80
2023-05-10T11:11:04.769Z,2.20
2023-05-10T11:14:07.771Z,2.30
2023-05-10T11:17:28.290Z,2.20
2023-05-10T11:20:34.607Z,2.08
2023-05-10T11:23:48.833Z,1.85
2023-05-10T11:26:52.375Z,1.80
2023-05-10T11:29:54.253Z,2.10
2023-05-10T11:32:56.300Z,1.77
2023-05-10T11:35:58.238Z,1.40
2023-05-10T11:39:00.239Z,1.75
2023-05-10T11:42:02.356Z,1.77
2023-05-10T11:45:04.434Z,1.47
2023-05-10T11:48:06.353Z,1.63
2023-05-10T11:51:11.836Z,2.10
2023-05-10T11:54:13.918Z,1.75
2023-05-10T11:57:16.141Z,1.95
2023-05-10T12:00:18.254Z,1.70
2023-05-10T12:03:20.616Z,1.65
2023-05-10T12:06:22.559Z,1.67
2023-05-10T12:12:39.981Z,1.33
2023-05-10T12:15:42.253Z,1.37
2023-05-10T12:18:44.233Z,1.70
2023-05-10T12:21:46.272Z,1.70
2023-05-10T12:24:48.049Z,1.65
2023-05-10T12:27:59.673Z,1.95
2023-05-10T12:31:02.232Z,1.50
2023-05-10T12:34:04.150Z,1.75
2023-05-10T12:37:06.035Z,1.58
2023-05-10T12:40:09.251Z,1.40
2023-05-10T12:43:11.358Z,1.60
2023-05-10T12:46:15.167Z,1.30
2023-05-10T12:49:17.947Z,1.65
2023-05-10T12:52:19.894Z,1.70
2023-05-10T12:55:21.695Z,1.60
2023-05-10T12:58:34.906Z,1.83
2023-05-10T13:01:38.083Z,1.20
2023-05-10T13:04:40.990Z,1.45
2023-05-10T13:07:45.003Z,1.70
2023-05-10T13:10:46.843Z,1.25
2023-05-10T13:13:48.803Z,1.67
2023-05-10T13:16:50.673Z,1.47
2023-05-10T13:19:52.524Z,1.30
2023-05-10T13:22:54.518Z,1.55
2023-05-10T13:25:56.336Z,1.60
2023-05-10T13:28:58.178Z,1.70
2023-05-10T13:32:00.357Z,1.70
2023-05-10T13:35:04.308Z,1.60
2023-05-10T13:38:09.101Z,1.80
2023-05-10T13:41:11.724Z,1.20
2023-05-10T13:44:14.565Z,1.35
2023-05-10T13:47:16.381Z,1.80
2023-05-10T13:50:19.203Z,1.77
2023-05-10T13:53:22.325Z,1.70
2023-05-10T13:56:24.123Z,1.60
2023-05-10T13:59:25.919Z,1.73
2023-05-10T14:02:28.754Z,1.57
2023-05-10T14:05:30.635Z,1.83
2023-05-10T14:08:36.272Z,1.65
2023-05-10T14:11:38.126Z,1.50
2023-05-10T14:14:40.216Z,1.70
2023-05-10T14:17:42.161Z,1.83
2023-05-10T14:20:44.070Z,1.80
2023-05-10T14:23:45.850Z,1.30
2023-05-10T14:26:47.726Z,1.70
2023-05-10T14:29:49.569Z,1.63
2023-05-10T14:32:51.356Z,1.40
2023-05-10T14:35:53.432Z,1.67
2023-05-10T14:38:55.320Z,1.90
2023-05-10T14:41:57.595Z,1.50
2023-05-10T14:44:59.518Z,1.52
2023-05-10T14:48:01.602Z,1.80
2023-05-10T14:51:05.023Z,1.52
2023-05-10T14:54:06.911Z,1.98
2023-05-10T14:57:08.763Z,1.42
2023-05-10T15:00:11.598Z,1.90
2023-05-10T15:03:13.912Z,1.60
2023-05-10T15:06:17.210Z,1.63
2023-05-10T15:09:19.122Z,1.70
2023-05-10T15:12:21.063Z,1.90
2023-05-10T15:15:22.849Z,1.98
2023-05-10T15:18:27.605Z,1.67
2023-05-10T15:21:29.463Z,1.85
2023-05-10T15:24:38.410Z,1.73
2023-05-10T15:27:40.148Z,1.70
2023-05-10T15:30:42.018Z,1.50
2023-05-10T15:33:43.806Z,1.70
2023-05-10T15:36:46.539Z,1.70
2023-05-10T15:39:52.473Z,1.65
2023-05-10T15:42:54.275Z,1.48
2023-05-10T15:45:56.063Z,1.75
2023-05-10T15:49:01.280Z,1.40
2023-05-10T15:52:03.269Z,1.70
2023-05-10T15:55:16.634Z,1.73
2023-05-10T15:58:19.411Z,1.40
2023-05-10T16:01:21.569Z,1.55
2023-05-10T16:04:23.753Z,1.60
2023-05-10T16:07:25.812Z,1.40
2023-05-10T16:10:28.104Z,1.70
2023-05-10T16:13:30.166Z,1.63
2023-05-10T16:16:32.528Z,1.63
2023-05-10T16:19:34.364Z,1.50
2023-05-10T16:22:36.512Z,1.73
2023-05-10T16:25:41.861Z,1.70
2023-05-10T16:28:43.728Z,1.38
2023-05-10T16:31:45.535Z,1.60
2023-05-10T16:34:47.473Z,1.63
2023-05-10T16:37:49.656Z,1.75
2023-05-10T16:40:55.050Z,1.77
2023-05-10T16:43:57.769Z,1.70
2023-05-10T16:46:59.576Z,1.52
2023-05-10T16:50:04.546Z,1.77
2023-05-10T16:53:06.884Z,1.60
2023-05-10T16:56:08.942Z,1.42
2023-05-10T16:59:10.876Z,1.60
2023-05-10T17:02:13.136Z,1.70
2023-05-10T17:05:15.317Z,1.77
2023-05-10T17:08:17.372Z,1.88
2023-05-10T17:11:21.203Z,1.50
2023-05-10T17:14:26.006Z,1.60
2023-05-10T17:17:27.880Z,1.45
2023-05-10T17:20:29.690Z,1.90
2023-05-10T17:23:31.505Z,1.75
2023-05-10T17:26:38.197Z,1.52
2023-05-10T17:29:40.082Z,1.67
2023-05-10T17:32:42.133Z,1.40
2023-05-10T17:35:45.409Z,1.60
2023-05-10T17:38:47.221Z,1.63
2023-05-10T17:41:52.252Z,1.85
2023-05-10T17:44:57.731Z,1.60
2023-05-10T17:47:59.705Z,1.75
2023-05-10T17:51:01.713Z,1.60
2023-05-10T17:54:03.759Z,1.65
2023-05-10T17:57:05.558Z,1.35
2023-05-10T18:00:09.570Z,1.50
2023-05-10T18:03:11.637Z,1.70
2023-05-10T18:06:13.683Z,1.70
2023-05-10T18:09:16.340Z,1.77
2023-05-10T18:12:21.235Z,1.80
2023-05-10T18:15:23.183Z,1.63
2023-05-10T18:18:25.531Z,1.73
2023-05-10T18:21:27.807Z,1.60
2023-05-10T18:24:38.894Z,1.35
2023-05-10T18:27:44.307Z,1.40
2023-05-10T18:30:46.239Z,1.75
2023-05-10T18:33:48.047Z,1.70
2023-05-10T18:36:50.005Z,1.50
2023-05-10T18:39:51.950Z,1.58
2023-05-10T18:42:54.046Z,1.50
2023-05-10T18:45:59.465Z,1.42
2023-05-10T18:49:02.909Z,1.60
2023-05-10T18:52:04.688Z,1.60
2023-05-10T18:55:07.363Z,1.67
2023-05-10T18:58:09.295Z,1.58
2023-05-10T19:01:14.388Z,1.75
2023-05-10T19:04:16.395Z,1.58
2023-05-10T19:07:18.204Z,1.80
2023-05-10T19:10:20.113Z,1.40
2023-05-10T19:13:22.108Z,1.80
2023-05-10T19:16:24.338Z,1.40
2023-05-10T19:19:26.541Z,1.52
2023-05-10T19:22:44.873Z,1.50
2023-05-10T19:25:51.050Z,1.30
2023-05-10T19:28:53.034Z,1.40
2023-05-10T19:31:55.035Z,1.50
2023-05-10T19:34:56.930Z,1.60
2023-05-10T19:37:58.755Z,1.50
2023-05-10T19:41:00.751Z,1.60
2023-05-10T19:44:02.623Z,1.45
2023-05-10T19:47:08.235Z,1.30
2023-05-10T19:50:10.665Z,1.45
2023-05-10T19:53:12.581Z,1.63
2023-05-10T19:56:14.538Z,1.30
2023-05-10T19:59:16.310Z,1.50
2023-05-10T20:02:18.429Z,1.45
2023-05-10T20:05:20.244Z,1.10
2023-05-10T20:08:21.991Z,1.13
2023-05-10T20:11:23.853Z,1.35
2023-05-10T20:14:25.759Z,1.08
2023-05-10T20:17:27.684Z,1.33
2023-05-10T20:20:29.936Z,1.40
2023-05-10T20:23:31.780Z,1.30
2023-05-10T20:26:34.105Z,1.30
2023-05-10T20:29:39.406Z,1.38
2023-05-10T20:32:41.880Z,1.67
2023-05-10T20:35:43.762Z,1.50
2023-05-10T20:38:45.668Z,1.40
2023-05-10T20:41:47.655Z,1.65
2023-05-10T20:44:50.025Z,1.70
2023-05-10T20:47:55.557Z,1.40
2023-05-10T20:50:57.462Z,1.42
2023-05-10T20:54:01.777Z,1.43
2023-05-10T20:57:03.780Z,1.70
2023-05-10T21:00:06.168Z,1.92
2023-05-10T21:03:08.107Z,1.40
2023-05-10T21:06:09.983Z,1.48
2023-05-10T21:09:11.945Z,1.50
2023-05-10T21:12:13.763Z,1.65
2023-05-10T21:15:15.578Z,1.73
2023-05-10T21:18:17.432Z,1.45
2023-05-10T21:21:19.302Z,1.67
2023-05-10T21:24:21.108Z,1.47
2023-05-10T21:27:23.005Z,1.40
2023-05-10T21:30:25.009Z,1.52
2023-05-10T21:33:27.117Z,1.40
2023-05-10T21:36:29.014Z,2.00
2023-05-10T21:39:31.000Z,1.43
2023-05-10T21:42:32.934Z,1.52
2023-05-10T21:45:40.789Z,1.60
2023-05-10T21:48:42.623Z,1.65
2023-05-10T21:51:44.529Z,2.13
2023-05-10T21:54:46.458Z,1.60
2023-05-10T21:57:50.883Z,1.55
2023-05-10T22:00:52.740Z,1.88
2023-05-10T22:03:54.647Z,1.60
2023-05-10T22:06:56.549Z,1.83
2023-05-10T22:09:58.965Z,1.50
2023-05-10T22:13:01.103Z,1.67
2023-05-10T22:16:03.026Z,1.50
2023-05-10T22:19:05.223Z,1.80
2023-05-10T22:22:07.208Z,1.80
2023-05-10T22:25:09.187Z,1.77
2023-05-10T22:28:11.155Z,1.80
2023-05-10T22:31:16.753Z,1.83
2023-05-10T22:34:18.990Z,1.77
2023-05-10T22:37:20.965Z,1.80
2023-05-10T22:40:23.019Z,1.77
2023-05-10T22:43:24.930Z,1.60
2023-05-10T22:46:30.817Z,2.10
2023-05-10T22:49:33.900Z,1.55
2023-05-10T22:52:38.941Z,1.80
2023-05-10T22:55:40.926Z,1.97
2023-05-10T22:58:42.893Z,1.80
2023-05-10T23:01:44.774Z,1.80
2023-05-10T23:04:50.365Z,1.92
2023-05-10T23:07:53.808Z,1.83
2023-05-10T23:10:55.783Z,1.70
2023-05-10T23:13:57.713Z,2.08
2023-05-10T23:17:02.735Z,1.80
2023-05-10T23:20:04.934Z,2.00
2023-05-10T23:23:07.299Z,2.00
2023-05-10T23:26:09.695Z,2.10
2023-05-10T23:29:11.610Z,2.00
2023-05-10T23:32:16.512Z,2.13
2023-05-10T23:35:18.443Z,2.15
2023-05-10T23:38:20.430Z,2.10
2023-05-10T23:41:22.294Z,2.07
2023-05-10T23:44:24.656Z,2.33
2023-05-10T23:47:26.991Z,2.88
2023-05-10T23:50:28.984Z,2.40
2023-05-10T23:53:30.866Z,2.47
2023-05-10T23:56:33.281Z,2.40
2023-05-10T23:59:35.376Z,2.53
